Time;durP1;ratioP1;P1;durP2;ratioP2;P2;SDS_P1;SDS_P2;PMS_P1;PMS_P2;Temp;Humidity;BMP_temperature;BMP_pressure;BME280_temperature;BME280_humidity;BME280_pressure;Samples;Min_cycle;Max_cycle;Signal;HPM_P1;HPM_P2
2021/09/04 00:01:37;;;;;;;21.13;15.73;;;;;;;11.03;81.31;98978.12;2171834;82;20972;-82
2021/09/04 00:04:37;;;;;;;25.33;16.83;;;;;;;11.04;81.45;98989.02;2172171;81;20996;-82
2021/09/04 00:07:38;;;;;;;28.27;17.50;;;;;;;11.34;86.88;98985.48;2171764;81;21407;-82
2021/09/04 00:10:39;;;;;;;22.05;16.93;;;;;;;13.54;91.07;98981.81;2171327;82;21004;-83
2021/09/04 00:13:39;;;;;;;22.60;16.93;;;;;;;15.63;86.60;98979.78;2172884;81;21011;-83
2021/09/04 00:16:40;;;;;;;19.70;15.32;;;;;;;17.04;81.48;98973.71;2171744;82;20945;-83
2021/09/04 00:19:40;;;;;;;21.95;15.25;;;;;;;17.98;76.90;98978.17;2171954;81;21387;-83
2021/09/04 00:22:41;;;;;;;22.93;15.78;;;;;;;18.69;73.94;98980.54;2171709;82;21325;-81
2021/09/04 00:25:41;;;;;;;20.37;14.05;;;;;;;19.20;70.24;98985.73;2171758;82;20980;-82
2021/09/04 00:28:42;;;;;;;18.52;12.73;;;;;;;19.84;66.33;98984.36;2172481;81;20950;-82
2021/09/04 00:31:42;;;;;;;20.20;14.85;;;;;;;19.84;66.33;98984.36;2170956;82;20969;-83
2021/09/04 00:34:43;;;;;;;16.20;13.13;;;;;;;20.22;65.55;98981.69;2170487;82;20999;-83
2021/09/04 00:37:43;;;;;;;17.50;13.90;;;;;;;20.45;63.47;98982.47;2170307;82;21006;-83
2021/09/04 00:40:44;;;;;;;20.82;14.00;;;;;;;20.62;62.96;98978.91;2170131;82;20980;-83
2021/09/04 00:43:44;;;;;;;16.10;12.13;;;;;;;20.71;61.73;98980.91;2170385;82;20961;-82
2021/09/04 00:46:45;;;;;;;17.80;14.25;;;;;;;20.67;60.70;98982.31;2170657;82;21043;-83
2021/09/04 00:49:46;;;;;;;29.12;12.68;;;;;;;20.69;60.54;98984.92;2170250;82;20972;-82
2021/09/04 00:52:46;;;;;;;16.90;12.90;;;;;;;20.85;59.63;98982.77;2171085;82;20973;-82
2021/09/04 00:55:47;;;;;;;19.02;15.08;;;;;;;21.11;58.52;98984.69;2170837;82;20970;-82
2021/09/04 00:58:47;;;;;;;15.60;13.13;;;;;;;21.21;58.16;98984.38;2171715;82;21000;-83
2021/09/04 01:01:47;;;;;;;19.12;15.08;;;;;;;21.30;57.49;98983.27;2170877;82;20957;-83
2021/09/04 01:04:48;;;;;;;19.05;15.13;;;;;;;21.35;56.66;98985.34;2170692;82;21325;-81
2021/09/04 01:07:48;;;;;;;18.25;14.50;;;;;;;21.52;55.77;98986.16;2171090;82;21052;-82
2021/09/04 01:10:49;;;;;;;20.75;16.17;;;;;;;21.61;55.64;98982.77;2170591;81;21015;-83
2021/09/04 01:13:50;;;;;;;21.93;16.37;;;;;;;21.59;55.40;98985.06;2170920;81;20961;-83
2021/09/04 01:16:50;;;;;;;21.25;16.70;;;;;;;21.50;55.20;98988.87;2171023;82;21324;-83
2021/09/04 01:19:51;;;;;;;21.02;17.42;;;;;;;21.21;54.54;98987.49;2171525;82;21033;-83
2021/09/04 01:22:51;;;;;;;20.45;16.73;;;;;;;20.94;54.99;98990.02;2170937;81;20964;-83
2021/09/04 01:25:52;;;;;;;24.35;17.17;;;;;;;20.76;54.82;98988.28;2170987;82;21008;-82
2021/09/04 01:28:52;;;;;;;23.47;16.73;;;;;;;20.65;55.50;98987.25;2170727;81;20981;-83
2021/09/04 01:31:53;;;;;;;18.73;16.70;;;;;;;20.62;55.42;98984.67;2171043;82;20976;-84
2021/09/04 01:34:53;;;;;;;18.17;15.70;;;;;;;20.75;55.33;98982.11;2171041;82;21353;-83
2021/09/04 01:37:54;;;;;;;21.97;14.50;;;;;;;20.84;55.03;98980.56;2171015;82;20937;-83
2021/09/04 01:40:54;;;;;;;18.92;15.43;;;;;;;20.89;54.74;98976.00;2170513;82;21067;-83
2021/09/04 01:43:55;;;;;;;18.70;14.80;;;;;;;20.73;52.79;98984.39;2170991;82;20988;-84
2021/09/04 01:46:55;;;;;;;17.07;15.23;;;;;;;19.18;52.74;98978.28;2170681;82;20968;-83
2021/09/04 01:49:56;;;;;;;19.23;14.87;;;;;;;17.75;54.44;98980.30;2170697;82;21436;-83
2021/09/04 01:52:56;;;;;;;22.82;16.27;;;;;;;16.67;56.43;98982.48;2171133;82;20976;-83
2021/09/04 01:55:57;;;;;;;23.50;18.10;;;;;;;15.82;58.39;98985.36;2170881;82;20984;-83
2021/09/04 01:58:57;;;;;;;19.45;16.00;;;;;;;15.12;59.95;98979.11;2170795;82;21004;-83
2021/09/04 02:01:58;;;;;;;23.07;15.58;;;;;;;14.58;61.34;98981.44;2171105;82;20968;-83
2021/09/04 02:04:58;;;;;;;19.82;15.28;;;;;;;14.25;62.54;98977.95;2170799;82;21345;-82
2021/09/04 02:07:59;;;;;;;22.60;17.45;;;;;;;13.88;63.49;98982.34;2170709;82;21000;-83
2021/09/04 02:10:59;;;;;;;23.92;17.17;;;;;;;13.50;64.62;98976.12;2171233;82;21055;-84
2021/09/04 02:14:01;;;;;;;21.68;17.50;;;;;;;13.19;65.62;98975.16;2171198;82;20949;-84
2021/09/04 02:17:01;;;;;;;24.05;18.50;;;;;;;12.90;66.37;98988.95;2171421;81;20981;-84
2021/09/04 02:20:02;;;;;;;20.52;16.95;;;;;;;12.70;67.33;98984.05;2171085;82;20941;-83
2021/09/04 02:23:02;;;;;;;26.57;18.10;;;;;;;12.56;67.92;98990.95;2171285;82;20945;-83
2021/09/04 02:26:06;;;;;;;24.57;17.27;;;;;;;12.43;68.45;98990.00;2170602;82;21032;-83
2021/09/04 02:29:07;;;;;;;19.27;17.12;;;;;;;12.24;68.82;98989.42;2170470;81;21478;-84
2021/09/04 02:32:08;;;;;;;26.77;18.52;;;;;;;11.98;69.33;98995.72;2173266;82;21345;-83
2021/09/04 02:35:08;;;;;;;27.87;18.30;;;;;;;11.78;69.92;99003.39;2173098;82;20964;-82
2021/09/04 02:38:09;;;;;;;29.07;19.27;;;;;;;11.73;70.55;99005.05;2172789;82;20984;-82
2021/09/04 02:41:10;;;;;;;26.17;18.77;;;;;;;11.62;71.03;98999.72;2173162;82;21016;-82
2021/09/04 02:44:10;;;;;;;23.95;17.05;;;;;;;11.58;71.53;99000.98;2172973;82;20941;-82
2021/09/04 02:47:13;;;;;;;24.18;18.07;;;;;;;11.52;71.74;98996.99;2172952;82;21152;-84
2021/09/04 02:50:13;;;;;;;28.32;19.00;;;;;;;11.52;72.23;99004.84;2172945;82;21378;-82
2021/09/04 02:53:17;;;;;;;25.10;17.42;;;;;;;11.52;72.48;99004.84;2172987;82;20953;-83
2021/09/04 02:56:17;;;;;;;24.80;18.30;;;;;;;11.47;72.74;99014.81;2172821;82;21005;-82
2021/09/04 02:59:18;;;;;;;24.47;18.05;;;;;;;11.39;73.16;99008.63;2173287;82;21347;-82
2021/09/04 03:02:18;;;;;;;28.73;19.02;;;;;;;11.36;73.26;99019.05;2173191;82;20933;-82
2021/09/04 03:05:19;;;;;;;26.87;19.55;;;;;;;11.34;73.95;99028.60;2173076;82;20969;-81
2021/09/04 03:08:19;;;;;;;27.77;18.30;;;;;;;11.38;74.38;99026.91;2173108;82;20992;-81
2021/09/04 03:11:22;;;;;;;25.40;17.80;;;;;;;11.39;74.28;99020.38;2174225;82;21051;-82
2021/09/04 03:14:23;;;;;;;26.25;18.80;;;;;;;11.32;74.28;99023.78;2174795;82;21526;-83
2021/09/04 03:17:23;;;;;;;28.77;18.90;;;;;;;11.30;75.25;99025.94;2172920;82;21001;-82
2021/09/04 03:20:26;;;;;;;23.45;17.75;;;;;;;11.30;75.39;99025.94;2173257;82;21438;-83
2021/09/04 03:23:26;;;;;;;22.20;17.77;;;;;;;11.23;75.15;99022.77;2173219;82;20941;-83
2021/09/04 03:26:27;;;;;;;25.97;18.15;;;;;;;11.17;75.26;99023.58;2172834;82;21340;-82
2021/09/04 03:29:27;;;;;;;25.00;17.23;;;;;;;11.18;75.60;99020.10;2171880;81;20973;-82
2021/09/04 03:32:28;;;;;;;26.50;17.92;;;;;;;11.18;75.69;99030.55;2170924;82;21011;-82
2021/09/04 03:35:28;;;;;;;31.42;19.20;;;;;;;11.14;75.67;99032.25;2170975;82;20964;-82
2021/09/04 03:38:31;;;;;;;34.00;19.35;;;;;;;11.17;76.12;99028.80;2171225;82;20984;-83
2021/09/04 03:41:32;;;;;;;26.07;18.32;;;;;;;11.14;76.14;99029.64;2170334;81;21024;-83
2021/09/04 03:44:32;;;;;;;28.52;20.08;;;;;;;11.12;76.40;99030.05;2171156;81;20969;-82
2021/09/04 03:47:33;;;;;;;27.80;20.05;;;;;;;11.12;76.92;99035.70;2171303;82;21008;-82
2021/09/04 03:50:33;;;;;;;33.92;20.60;;;;;;;11.17;77.25;99036.64;2170837;82;20976;-81
2021/09/04 03:53:34;;;;;;;25.02;19.17;;;;;;;11.22;77.15;99043.22;2170660;82;20929;-81
2021/09/04 03:56:35;;;;;;;26.10;20.25;;;;;;;11.17;77.07;99044.47;2170343;82;21369;-82
2021/09/04 03:59:35;;;;;;;30.45;20.57;;;;;;;11.13;77.44;99054.01;2171094;82;21004;-83
2021/09/04 04:02:35;;;;;;;26.57;19.50;;;;;;;11.14;77.64;99056.19;2170314;82;20948;-82
2021/09/04 04:05:36;;;;;;;25.17;18.95;;;;;;;11.12;77.36;99056.17;2170687;82;21407;-81
2021/09/04 04:08:36;;;;;;;31.68;18.25;;;;;;;11.08;77.35;99059.61;2171071;81;20957;-82
2021/09/04 04:11:37;;;;;;;23.07;18.42;;;;;;;11.04;77.46;99060.42;2171179;82;21043;-82
2021/09/04 04:14:38;;;;;;;33.60;18.82;;;;;;;11.05;77.72;99055.64;2170508;81;21013;-81
2021/09/04 04:17:38;;;;;;;27.30;18.87;;;;;;;11.12;78.01;99052.68;2170565;82;21355;-82
2021/09/04 04:20:39;;;;;;;48.52;21.68;;;;;;;11.13;78.05;99051.83;2171423;82;21012;-83
2021/09/04 04:23:42;;;;;;;24.45;19.62;;;;;;;11.18;78.12;99056.68;2171720;81;20956;-83
2021/09/04 04:26:42;;;;;;;25.80;20.10;;;;;;;11.21;77.85;99066.30;2171154;82;21000;-83
2021/09/04 04:29:43;;;;;;;26.48;18.90;;;;;;;11.20;78.11;99062.80;2171211;81;20964;-83
2021/09/04 04:32:43;;;;;;;27.87;19.20;;;;;;;11.23;78.09;99055.43;2171730;82;20929;-83
2021/09/04 04:35:44;;;;;;;25.60;19.87;;;;;;;11.19;77.77;99055.82;2171414;81;21368;-83
2021/09/04 04:38:44;;;;;;;28.93;20.37;;;;;;;11.17;77.81;99058.84;2171758;82;21392;-83
2021/09/04 04:41:45;;;;;;;31.23;19.87;;;;;;;11.21;78.07;99059.33;2170302;82;21050;-82
2021/09/04 04:44:45;;;;;;;26.97;17.93;;;;;;;11.27;77.91;99055.52;2170471;82;20961;-82
2021/09/04 04:47:46;;;;;;;46.13;19.77;;;;;;;12.47;84.18;99055.91;2171363;82;21384;-81
2021/09/04 04:50:46;;;;;;;29.32;17.45;;;;;;;14.05;81.54;99057.58;2170729;82;21360;-81
2021/09/04 04:53:47;;;;;;;26.73;19.35;;;;;;;15.13;77.13;99065.44;2170125;82;20976;-82
2021/09/04 04:56:47;;;;;;;29.72;21.93;;;;;;;15.46;73.42;99067.07;2171195;81;21016;-81
2021/09/04 04:59:48;;;;;;;27.80;18.57;;;;;;;15.83;73.23;99068.70;2171270;81;21016;-84
2021/09/04 05:02:48;;;;;;;31.10;21.52;;;;;;;16.27;71.71;99064.90;2171735;81;20977;-82
2021/09/04 05:05:49;;;;;;;29.90;17.15;;;;;;;15.77;68.82;99069.17;2170538;82;21430;-82
2021/09/04 05:08:49;;;;;;;23.85;17.52;;;;;;;15.74;69.99;99062.61;2171568;82;20936;-82
2021/09/04 05:11:50;;;;;;;32.75;17.87;;;;;;;15.90;69.88;99065.15;2171230;82;21007;-82
2021/09/04 05:14:50;;;;;;;29.63;18.65;;;;;;;16.14;68.65;99065.88;2171173;82;20968;-82
2021/09/04 05:17:51;;;;;;;25.85;18.37;;;;;;;15.57;67.08;99062.22;2170949;82;20969;-82
2021/09/04 05:20:52;;;;;;;31.05;19.07;;;;;;;14.31;69.82;99067.66;2170715;81;21388;-81
2021/09/04 05:23:53;;;;;;;23.38;16.37;;;;;;;14.31;69.82;99067.66;2171156;82;20976;-81
2021/09/04 05:26:53;;;;;;;22.50;17.05;;;;;;;14.79;71.95;99073.39;2170866;82;21035;-81
2021/09/04 05:29:54;;;;;;;208.78;29.77;;;;;;;15.64;70.40;99074.07;2171196;81;20964;-82
2021/09/04 05:32:54;;;;;;;38.53;20.02;;;;;;;15.55;68.28;99076.23;2170171;81;21033;-83
2021/09/04 05:35:55;;;;;;;27.48;21.77;;;;;;;14.87;68.43;99076.02;2170079;82;20959;-82
2021/09/04 05:38:55;;;;;;;27.27;19.87;;;;;;;14.87;68.43;99076.02;2170192;81;20950;-81
2021/09/04 05:41:56;;;;;;;54.05;22.45;;;;;;;14.35;69.19;99079.92;2169592;82;21031;-82
2021/09/04 05:44:56;;;;;;;34.83;22.07;;;;;;;13.97;70.21;99090.38;2169610;82;21359;-83
2021/09/04 05:47:57;;;;;;;31.45;22.07;;;;;;;13.99;71.90;99090.81;2170636;82;21000;-82
2021/09/04 05:50:57;;;;;;;36.28;22.10;;;;;;;14.22;72.54;99088.66;2170865;82;21008;-82
2021/09/04 05:53:58;;;;;;;27.25;20.17;;;;;;;14.63;72.70;99086.95;2171648;82;20973;-82
2021/09/04 05:57:04;;;;;;;29.90;19.85;;;;;;;14.73;71.58;99082.56;2171871;82;21004;-82
2021/09/04 06:00:04;;;;;;;30.12;19.87;;;;;;;14.65;71.68;99090.45;2171862;82;20937;-81
2021/09/04 06:03:07;;;;;;;27.58;19.87;;;;;;;14.66;72.13;99086.95;2171944;82;21000;-82
2021/09/04 06:06:08;;;;;;;27.87;19.57;;;;;;;14.78;72.48;99089.16;2171466;82;21431;-83
2021/09/04 06:09:08;;;;;;;25.37;19.07;;;;;;;14.85;72.54;99094.41;2172164;82;20956;-83
2021/09/04 06:12:10;;;;;;;27.75;19.12;;;;;;;15.08;72.50;99089.11;2171038;82;21353;-83
2021/09/04 06:15:10;;;;;;;22.77;18.10;;;;;;;15.15;72.34;99088.22;2170494;82;20948;-83
2021/09/04 06:18:11;;;;;;;23.85;17.57;;;;;;;15.37;72.32;99094.72;2170541;82;20956;-81
2021/09/04 06:21:12;;;;;;;21.68;16.80;;;;;;;15.37;72.32;99094.72;2170782;81;21380;-82
2021/09/04 06:24:12;;;;;;;22.32;16.23;;;;;;;15.51;72.03;99093.80;2170212;82;21372;-84
2021/09/04 06:30:15;;;;;;;35.15;17.30;;;;;;;15.74;71.66;99091.56;2162107;81;21045;-82
2021/09/04 06:33:18;;;;;;;21.05;15.13;;;;;;;16.01;71.17;99099.31;2171253;82;20983;-83
2021/09/04 06:36:21;;;;;;;22.13;15.65;;;;;;;16.26;71.34;99093.44;2171153;82;20945;-83
2021/09/04 06:39:21;;;;;;;19.40;15.10;;;;;;;16.44;70.52;99093.75;2171068;82;21040;-83
2021/09/04 06:42:22;;;;;;;19.00;14.20;;;;;;;16.50;69.26;99097.23;2170439;82;21059;-83
2021/09/04 06:45:22;;;;;;;19.73;14.53;;;;;;;16.45;69.61;99099.00;2170389;82;21008;-82
2021/09/04 06:48:23;;;;;;;17.40;14.30;;;;;;;16.65;68.76;99111.17;2171270;81;20989;-82
2021/09/04 06:51:23;;;;;;;17.27;13.58;;;;;;;16.65;68.76;99111.17;2171572;81;20960;-84
2021/09/04 06:54:24;;;;;;;17.05;12.25;;;;;;;16.68;68.39;99114.70;2170852;81;20965;-81
2021/09/04 06:57:25;;;;;;;18.80;13.00;;;;;;;16.43;68.25;99119.22;2170181;82;20988;-81
2021/09/04 07:00:25;;;;;;;17.30;13.88;;;;;;;16.32;68.31;99111.84;2170750;82;21356;-82
2021/09/04 07:03:26;;;;;;;14.58;12.37;;;;;;;16.34;68.16;99119.73;2170928;82;21067;-83
2021/09/04 07:06:28;;;;;;;15.75;12.18;;;;;;;16.58;67.84;99118.70;2161027;82;20969;-82
2021/09/04 07:09:29;;;;;;;22.17;16.20;;;;;;;16.80;67.43;99117.67;2170253;81;20988;-82
2021/09/04 07:12:29;;;;;;;17.17;13.32;;;;;;;16.79;67.11;99122.06;2171502;81;20989;-84
2021/09/04 07:15:30;;;;;;;18.98;13.65;;;;;;;16.86;67.33;99117.61;2171167;82;20972;-82
2021/09/04 07:18:30;;;;;;;14.23;11.65;;;;;;;17.08;66.91;99113.01;2170660;81;20964;-83
2021/09/04 07:21:31;;;;;;;19.82;15.63;;;;;;;17.22;66.25;99116.82;2171449;82;20987;-82
2021/09/04 07:24:31;;;;;;;15.23;11.80;;;;;;;17.20;66.06;99122.11;2171963;82;21011;-83
2021/09/04 07:27:32;;;;;;;14.80;13.25;;;;;;;17.52;66.06;99125.75;2171760;81;21016;-83
2021/09/04 07:30:32;;;;;;;18.07;12.95;;;;;;;17.76;64.98;99121.97;2171407;81;21251;-82
2021/09/04 07:33:33;;;;;;;12.37;10.10;;;;;;;17.89;64.36;99132.80;2171320;82;20993;-82
2021/09/04 07:36:33;;;;;;;12.23;10.80;;;;;;;18.06;64.47;99128.61;2170728;82;20965;-83
2021/09/04 07:39:34;;;;;;;14.05;9.20;;;;;;;18.29;63.38;99137.12;2171607;82;21384;-82
2021/09/04 07:42:34;;;;;;;9.10;8.20;;;;;;;18.29;62.48;99138.44;2171376;82;21004;-82
2021/09/04 07:45:35;;;;;;;11.43;9.38;;;;;;;18.37;61.75;99142.30;2171397;82;21005;-83
2021/09/04 07:48:35;;;;;;;17.75;13.28;;;;;;;18.39;61.70;99140.05;2171354;82;20985;-82
2021/09/04 07:51:36;;;;;;;11.35;8.55;;;;;;;18.47;61.00;99143.90;2171193;82;21008;-83
2021/09/04 07:54:36;;;;;;;11.35;8.85;;;;;;;18.56;61.73;99149.50;2171193;82;20968;-80
2021/09/04 07:57:37;;;;;;;11.40;8.43;;;;;;;18.65;60.81;99144.09;2171164;82;21015;-82
2021/09/04 08:00:37;;;;;;;10.60;7.72;;;;;;;18.78;61.01;99145.64;2171226;82;21012;-83
2021/09/04 08:03:38;;;;;;;8.55;7.65;;;;;;;18.90;59.72;99149.41;2171140;82;20929;-81
2021/09/04 08:06:38;;;;;;;17.17;7.75;;;;;;;18.78;59.26;99146.52;2170727;82;20993;-82
2021/09/04 08:09:40;;;;;;;8.05;7.25;;;;;;;18.85;60.24;99152.58;2170742;82;20953;-81
2021/09/04 08:12:41;;;;;;;7.90;7.10;;;;;;;18.87;60.03;99155.20;2171457;81;20977;-82
2021/09/04 08:15:41;;;;;;;10.43;7.92;;;;;;;19.06;59.91;99153.53;2171100;82;20957;-83
2021/09/04 08:18:42;;;;;;;10.47;7.10;;;;;;;19.33;59.33;99161.91;2171042;81;21027;-83
2021/09/04 08:21:42;;;;;;;8.80;7.37;;;;;;;19.60;58.14;99163.20;2170175;82;21292;-82
2021/09/04 08:24:43;;;;;;;9.30;6.97;;;;;;;19.58;57.38;99165.88;2170237;82;20992;-84
2021/09/04 08:27:43;;;;;;;8.05;7.12;;;;;;;19.57;55.83;99160.61;2170791;82;21008;-83
2021/09/04 08:30:44;;;;;;;10.88;7.33;;;;;;;19.62;54.92;99170.20;2170395;82;20996;-81
2021/09/04 08:33:45;;;;;;;11.40;8.00;;;;;;;19.57;56.25;99172.08;2170611;82;20957;-83
2021/09/04 08:36:47;;;;;;;10.03;7.95;;;;;;;19.76;54.88;99172.58;2170755;82;20957;-84
2021/09/04 08:39:48;;;;;;;10.27;8.10;;;;;;;19.56;56.04;99167.68;2171091;81;21388;-81
2021/09/04 08:42:48;;;;;;;8.43;7.60;;;;;;;19.54;56.56;99166.84;2170928;82;21047;-82
2021/09/04 08:45:49;;;;;;;9.63;7.87;;;;;;;19.70;55.49;99173.58;2171108;82;21356;-82
2021/09/04 08:48:50;;;;;;;12.60;8.75;;;;;;;19.88;55.79;99163.06;2170821;82;20929;-82
2021/09/04 08:51:51;;;;;;;9.70;8.03;;;;;;;20.01;54.64;99172.98;2170857;82;21379;-83
2021/09/04 08:54:51;;;;;;;10.85;8.68;;;;;;;19.89;54.76;99173.20;2171287;82;21320;-83
2021/09/04 08:57:52;;;;;;;10.53;9.15;;;;;;;19.95;55.74;99170.02;2171255;82;20976;-83
2021/09/04 09:00:52;;;;;;;10.18;8.20;;;;;;;19.92;55.24;99167.84;2170725;82;21020;-83
2021/09/04 09:03:53;;;;;;;10.60;8.58;;;;;;;20.01;54.88;99169.02;2170353;82;20988;-83
2021/09/04 09:06:53;;;;;;;9.35;7.65;;;;;;;19.85;53.31;99168.42;2170461;82;21378;-86
2021/09/04 09:09:54;;;;;;;8.83;7.92;;;;;;;19.67;53.84;99164.37;2170324;82;20972;-83
2021/09/04 09:12:54;;;;;;;12.60;8.00;;;;;;;19.65;53.89;99163.53;2169828;82;21016;-82
2021/09/04 09:15:56;;;;;;;7.00;6.30;;;;;;;19.81;54.85;99170.72;2169762;82;20968;-81
2021/09/04 09:18:57;;;;;;;10.13;6.75;;;;;;;19.97;53.15;99160.70;2170176;82;21001;-81
2021/09/04 09:21:57;;;;;;;8.05;7.15;;;;;;;20.20;53.85;99158.44;2170580;82;21003;-81
2021/09/04 09:24:58;;;;;;;9.43;7.58;;;;;;;20.43;48.71;99167.23;2169699;82;21027;-82
2021/09/04 09:27:58;;;;;;;9.40;7.28;;;;;;;20.04;49.94;99167.63;2170381;82;20993;-81
2021/09/04 09:31:00;;;;;;;12.03;7.75;;;;;;;19.64;51.70;99167.53;2169746;81;20996;-82
2021/09/04 09:34:00;;;;;;;8.58;6.20;;;;;;;19.42;52.87;99168.36;2172258;82;20996;-82
2021/09/04 09:37:01;;;;;;;9.05;7.50;;;;;;;19.49;52.98;99171.31;2172233;82;21348;-82
2021/09/04 09:40:01;;;;;;;12.33;6.90;;;;;;;19.60;53.45;99181.28;2172059;82;20984;-80
2021/09/04 09:43:02;;;;;;;9.43;6.90;;;;;;;19.40;52.31;99185.59;2172542;82;21000;-80
2021/09/04 09:46:02;;;;;;;9.83;7.25;;;;;;;19.01;51.26;99191.10;2172957;82;21012;-83
2021/09/04 09:49:03;;;;;;;7.90;7.08;;;;;;;18.74;52.86;99190.22;2172422;82;20964;-81
2021/09/04 09:52:03;;;;;;;8.00;7.08;;;;;;;18.58;54.10;99188.68;2172450;82;20933;-80
2021/09/04 09:55:04;;;;;;;7.97;6.28;;;;;;;18.40;54.15;99189.82;2172245;82;21384;-82
2021/09/04 09:58:04;;;;;;;8.58;6.70;;;;;;;18.26;54.77;99188.69;2172206;82;21043;-81
2021/09/04 10:01:05;;;;;;;7.40;6.25;;;;;;;18.45;55.11;99184.02;2172288;82;20944;-80
2021/09/04 10:04:05;;;;;;;6.67;5.22;;;;;;;18.75;54.52;99188.00;2172157;82;20984;-80
2021/09/04 10:07:06;;;;;;;6.50;5.90;;;;;;;19.11;52.73;99184.36;2172317;82;21027;-81
2021/09/04 10:10:06;;;;;;;9.40;6.10;;;;;;;19.47;53.25;99169.14;2172030;82;20957;-83
2021/09/04 10:13:07;;;;;;;9.13;5.90;;;;;;;19.86;51.21;99169.30;2172049;82;21083;-82
2021/09/04 10:16:08;;;;;;;7.45;6.00;;;;;;;20.06;48.30;99171.56;2172040;82;21008;-82
2021/09/04 10:19:08;;;;;;;11.97;10.58;;;;;;;20.10;46.65;99174.12;2172352;82;20945;-81
2021/09/04 10:22:08;;;;;;;7.65;6.28;;;;;;;19.89;48.45;99163.94;2172476;82;20980;-82
2021/09/04 10:25:09;;;;;;;5.70;5.20;;;;;;;20.01;49.11;99168.56;2172656;82;20992;-81
2021/09/04 10:28:10;;;;;;;6.85;5.08;;;;;;;20.23;47.89;99176.92;2172337;82;21023;-83
2021/09/04 10:31:11;;;;;;;5.87;5.20;;;;;;;20.27;46.21;99173.30;2172494;81;20972;-82
2021/09/04 10:34:11;;;;;;;6.33;5.33;;;;;;;20.30;46.71;99166.60;2170624;82;21012;-85
2021/09/04 10:37:12;;;;;;;8.53;5.17;;;;;;;20.45;45.52;99176.02;2170256;82;21003;-83
2021/09/04 10:43:15;;;;;;;3.62;3.33;;;;;;;20.54;45.11;99173.61;2161341;82;21068;-82
2021/09/04 10:46:15;;;;;;;4.28;3.67;;;;;;;20.70;43.83;99168.36;2169975;82;21031;-82
2021/09/04 10:49:16;;;;;;;5.40;3.20;;;;;;;20.81;42.99;99174.31;2170599;81;21023;-84
2021/09/04 10:52:16;;;;;;;3.20;2.90;;;;;;;20.76;40.94;99170.00;2170000;82;20973;-83
2021/09/04 10:55:17;;;;;;;18.05;13.88;;;;;;;20.77;42.04;99170.41;2168848;81;21358;-83
2021/09/04 10:58:20;;;;;;;9.10;8.20;;;;;;;20.84;40.92;99171.59;2168678;82;20988;-82
2021/09/04 11:01:20;;;;;;;8.13;7.22;;;;;;;20.81;41.07;99167.69;2168232;81;20987;-81
2021/09/04 11:04:23;;;;;;;3.52;3.15;;;;;;;20.76;40.47;99173.52;2168038;82;20968;-82
2021/09/04 11:07:23;;;;;;;3.45;3.15;;;;;;;20.63;38.57;99174.27;2168390;82;21384;-83
2021/09/04 11:10:24;;;;;;;2.80;2.60;;;;;;;20.54;40.70;99168.31;2168882;82;20969;-84
2021/09/04 11:13:24;;;;;;;7.08;3.58;;;;;;;20.58;38.92;99169.98;2169034;81;21043;-83
2021/09/04 11:16:25;;;;;;;3.67;2.65;;;;;;;20.65;40.44;99168.47;2169413;82;20960;-83
2021/09/04 11:19:25;;;;;;;11.08;5.25;;;;;;;20.76;39.88;99162.91;2169086;82;21008;-83
2021/09/04 11:22:26;;;;;;;3.83;2.90;;;;;;;20.93;47.12;99166.05;2169903;82;20988;-83
2021/09/04 11:25:26;;;;;;;4.72;3.62;;;;;;;21.67;41.24;99166.80;2170573;82;21004;-84
2021/09/04 11:28:27;;;;;;;3.15;2.85;;;;;;;21.50;37.89;99169.92;2170339;82;21063;-83
2021/09/04 11:31:27;;;;;;;3.10;2.60;;;;;;;21.38;38.88;99168.47;2170714;82;20937;-82
2021/09/04 11:34:28;;;;;;;10.75;2.92;;;;;;;21.46;37.60;99169.59;2171146;82;20973;-83
2021/09/04 11:37:28;;;;;;;3.27;2.98;;;;;;;21.88;39.51;99171.53;2171818;82;21313;-82
2021/09/04 11:40:31;;;;;;;2.87;2.67;;;;;;;22.37;39.08;99168.33;2171617;81;20953;-83
2021/09/04 11:43:31;;;;;;;2.92;2.20;;;;;;;22.77;37.72;99165.31;2171311;82;21138;-82
2021/09/04 11:46:32;;;;;;;4.20;3.02;;;;;;;22.98;36.19;99162.44;2169912;81;21482;-83
2021/09/04 11:49:32;;;;;;;3.02;2.83;;;;;;;22.50;35.75;99171.47;2171247;82;21000;-82
2021/09/04 11:52:34;;;;;;;3.15;2.70;;;;;;;21.92;36.49;99162.10;2172057;81;20973;-83
2021/09/04 11:55:35;;;;;;;7.00;3.37;;;;;;;21.88;39.72;99160.91;2171826;82;21020;-82
2021/09/04 11:58:35;;;;;;;2.50;2.27;;;;;;;22.56;39.10;99161.55;2171561;82;20953;-83
2021/09/04 12:01:37;;;;;;;2.90;2.60;;;;;;;22.88;36.66;99165.86;2161809;82;21004;-82
2021/09/04 12:04:38;;;;;;;2.80;2.25;;;;;;;22.41;36.12;99160.66;2171079;81;21275;-82
2021/09/04 12:07:38;;;;;;;2.50;2.30;;;;;;;22.66;36.84;99150.15;2171817;82;21028;-83
2021/09/04 12:10:39;;;;;;;15.68;3.50;;;;;;;22.41;34.93;99155.34;2171173;81;20984;-81
2021/09/04 12:13:40;;;;;;;5.95;3.08;;;;;;;22.46;37.79;99163.18;2171275;82;21416;-81
2021/09/04 12:16:40;;;;;;;3.75;2.67;;;;;;;22.91;36.39;99157.36;2170811;82;21323;-82
2021/09/04 12:19:41;;;;;;;7.00;3.50;;;;;;;23.27;35.98;99158.78;2171534;81;20964;-82
2021/09/04 12:22:41;;;;;;;2.80;2.50;;;;;;;23.50;35.06;99154.87;2171024;82;21004;-81
2021/09/04 12:25:42;;;;;;;4.40;3.08;;;;;;;23.42;32.29;99166.27;2170549;82;20976;-82
2021/09/04 12:28:42;;;;;;;2.70;2.47;;;;;;;22.94;34.24;99162.13;2171033;82;21051;-81
2021/09/04 12:31:43;;;;;;;6.47;2.50;;;;;;;23.01;33.42;99160.13;2171312;81;20988;-81
2021/09/04 12:34:43;;;;;;;4.67;2.77;;;;;;;23.28;34.44;99161.84;2170241;82;20941;-81
2021/09/04 12:37:43;;;;;;;4.58;3.05;;;;;;;23.15;33.96;99162.73;2170355;82;20946;-81
2021/09/04 12:40:44;;;;;;;3.10;2.80;;;;;;;23.04;35.28;99163.56;2170234;82;20991;-82
2021/09/04 12:43:44;;;;;;;3.20;2.90;;;;;;;22.58;35.34;99162.83;2170480;82;21035;-82
2021/09/04 12:46:45;;;;;;;3.70;3.05;;;;;;;22.02;36.44;99172.01;2170702;82;21036;-83
2021/09/04 12:49:45;;;;;;;3.65;2.65;;;;;;;22.07;37.13;99167.92;2170774;82;20981;-82
2021/09/04 12:52:46;;;;;;;2.50;2.30;;;;;;;22.07;38.11;99163.47;2170595;82;20980;-82
2021/09/04 12:55:46;;;;;;;3.10;2.72;;;;;;;22.12;37.61;99166.87;2170688;82;21297;-81
2021/09/04 12:58:47;;;;;;;2.40;2.20;;;;;;;22.08;38.35;99172.32;2170772;82;21347;-83
2021/09/04 13:01:47;;;;;;;4.03;2.42;;;;;;;22.13;38.46;99168.61;2170105;82;20984;-82
2021/09/04 13:04:48;;;;;;;3.05;2.77;;;;;;;22.28;37.81;99167.73;2170172;82;21051;-82
2021/09/04 13:07:48;;;;;;;4.33;3.02;;;;;;;22.29;37.92;99169.02;2170463;82;20960;-84
2021/09/04 13:10:49;;;;;;;2.85;2.65;;;;;;;22.20;37.17;99170.16;2170631;82;20941;-80
2021/09/04 13:13:49;;;;;;;2.62;2.40;;;;;;;21.79;38.26;99171.80;2170491;81;21383;-81
2021/09/04 13:16:50;;;;;;;3.75;3.10;;;;;;;21.55;38.91;99170.66;2170112;82;21004;-81
2021/09/04 13:19:50;;;;;;;5.85;3.05;;;;;;;21.98;40.91;99171.69;2169811;82;21000;-84
2021/09/04 13:22:51;;;;;;;4.15;2.80;;;;;;;22.38;39.82;99176.72;2169821;81;20989;-82
2021/09/04 13:25:51;;;;;;;5.28;2.62;;;;;;;22.46;37.98;99176.02;2169736;82;21004;-82
2021/09/04 13:28:52;;;;;;;3.20;2.90;;;;;;;22.29;37.67;99173.47;2169663;82;21356;-83
2021/09/04 13:31:52;;;;;;;5.92;2.92;;;;;;;21.79;37.16;99175.78;2170459;81;20997;-80
2021/09/04 13:34:53;;;;;;;2.70;2.50;;;;;;;21.40;37.04;99161.33;2171059;82;21040;-81
2021/09/04 13:37:53;;;;;;;2.80;2.50;;;;;;;21.13;37.56;99172.64;2171944;81;20961;-81
2021/09/04 13:40:54;;;;;;;3.02;2.70;;;;;;;20.99;38.56;99169.01;2170733;82;20930;-81
2021/09/04 13:43:54;;;;;;;4.45;2.80;;;;;;;21.09;38.83;99164.34;2171069;82;21044;-81
2021/09/04 13:46:55;;;;;;;2.90;2.60;;;;;;;21.31;38.50;99162.91;2171281;82;21364;-81
2021/09/04 13:49:55;;;;;;;3.12;2.85;;;;;;;21.22;38.74;99165.77;2171682;82;20941;-83
2021/09/04 13:52:59;;;;;;;4.42;2.80;;;;;;;21.15;38.11;99173.47;2171102;82;21020;-85
2021/09/04 13:55:59;;;;;;;23.85;4.35;;;;;;;21.16;38.83;99172.56;2171011;82;21016;-82
2021/09/04 13:59:00;;;;;;;6.35;2.87;;;;;;;21.25;39.57;99171.90;2171181;82;20928;-82
2021/09/04 14:02:00;;;;;;;2.67;2.47;;;;;;;21.30;38.92;99165.14;2171996;81;21023;-81
2021/09/04 14:05:04;;;;;;;4.15;2.50;;;;;;;21.32;38.26;99163.77;2170956;82;21405;-82